createdAt,value
2017-05-25T00:01:39.429Z,15.70
2017-05-25T00:04:07.700Z,15.80
2017-05-25T00:06:35.961Z,15.90
2017-05-25T00:09:04.229Z,15.80
2017-05-25T00:11:32.519Z,15.70
2017-05-25T00:14:00.760Z,15.60
2017-05-25T00:16:29.024Z,15.70
2017-05-25T00:18:57.273Z,15.80
2017-05-25T00:21:25.551Z,15.80
2017-05-25T00:23:53.795Z,15.80
2017-05-25T00:26:22.055Z,15.70
2017-05-25T00:28:50.305Z,15.70
2017-05-25T00:31:18.581Z,15.70
2017-05-25T00:33:46.829Z,15.90
2017-05-25T00:36:15.078Z,15.90
2017-05-25T00:38:43.342Z,15.60
2017-05-25T00:41:11.601Z,15.50
2017-05-25T00:43:39.864Z,15.70
2017-05-25T00:46:08.128Z,15.70
2017-05-25T00:48:36.388Z,15.60
2017-05-25T00:51:04.630Z,15.60
2017-05-25T00:53:32.892Z,15.60
2017-05-25T00:56:01.156Z,15.60
2017-05-25T00:58:29.512Z,15.60
2017-05-25T01:00:57.784Z,15.40
2017-05-25T01:03:26.020Z,15.40
2017-05-25T01:05:54.283Z,15.40
2017-05-25T01:08:22.530Z,15.40
2017-05-25T01:10:50.783Z,15.40
2017-05-25T01:13:19.053Z,15.30
2017-05-25T01:15:47.320Z,15.30
2017-05-25T01:18:15.582Z,15.20
2017-05-25T01:20:43.825Z,15.10
2017-05-25T01:23:12.080Z,15.00
2017-05-25T01:25:40.327Z,15.00
2017-05-25T01:28:08.584Z,14.90
2017-05-25T01:30:36.824Z,15.10
2017-05-25T01:33:05.069Z,15.10
2017-05-25T01:35:33.332Z,15.00
2017-05-25T01:38:01.580Z,14.80
2017-05-25T01:40:29.843Z,14.60
2017-05-25T01:42:58.096Z,14.60
2017-05-25T01:45:26.360Z,14.60
2017-05-25T01:47:54.626Z,14.50
2017-05-25T01:50:22.868Z,14.50
2017-05-25T01:52:51.129Z,14.60
2017-05-25T01:55:19.368Z,14.60
2017-05-25T01:57:47.617Z,14.50
2017-05-25T02:00:15.889Z,14.50
2017-05-25T02:02:44.148Z,14.50
2017-05-25T02:05:12.397Z,14.50
2017-05-25T02:07:40.649Z,14.60
2017-05-25T02:10:08.924Z,14.50
2017-05-25T02:12:37.176Z,14.50
2017-05-25T02:15:05.431Z,14.50
2017-05-25T02:17:33.681Z,14.50
2017-05-25T02:20:01.929Z,14.40
2017-05-25T02:22:30.212Z,14.40
2017-05-25T02:24:58.455Z,14.30
2017-05-25T02:27:26.701Z,14.30
2017-05-25T02:29:54.961Z,14.20
2017-05-25T02:32:23.213Z,14.30
2017-05-25T02:34:51.477Z,14.30
2017-05-25T02:37:19.723Z,14.30
2017-05-25T02:39:47.968Z,14.30
2017-05-25T02:42:16.243Z,14.30
2017-05-25T02:44:44.489Z,14.40
2017-05-25T02:47:12.757Z,14.30
2017-05-25T02:49:41.033Z,14.30
2017-05-25T02:52:09.300Z,14.30
2017-05-25T02:54:37.569Z,14.20
2017-05-25T02:57:05.826Z,14.20
2017-05-25T02:59:34.088Z,14.00
2017-05-25T03:02:02.356Z,14.00
2017-05-25T03:04:30.630Z,13.80
2017-05-25T03:06:58.883Z,13.70
2017-05-25T03:09:27.130Z,13.60
2017-05-25T03:11:55.391Z,13.60
2017-05-25T03:14:23.635Z,13.50
2017-05-25T03:16:51.897Z,13.50
2017-05-25T03:19:20.155Z,13.40
2017-05-25T03:21:48.412Z,13.30
2017-05-25T03:24:16.655Z,13.30
2017-05-25T03:26:44.913Z,13.20
2017-05-25T03:29:13.172Z,13.10
2017-05-25T03:31:41.417Z,13.00
2017-05-25T03:34:09.681Z,13.00
2017-05-25T03:36:37.933Z,13.00
2017-05-25T03:39:06.244Z,13.20
2017-05-25T03:41:34.490Z,13.20
2017-05-25T03:44:02.753Z,13.10
2017-05-25T03:46:30.998Z,13.10
2017-05-25T03:48:59.244Z,13.10
2017-05-25T03:51:27.523Z,13.20
2017-05-25T03:53:55.765Z,13.20
2017-05-25T03:56:24.035Z,13.20
2017-05-25T03:58:52.282Z,13.30
2017-05-25T04:01:20.552Z,13.20
2017-05-25T04:03:48.795Z,13.30
2017-05-25T04:06:17.063Z,13.40
2017-05-25T04:08:45.326Z,13.40
2017-05-25T04:11:13.572Z,13.40
2017-05-25T04:13:41.838Z,13.40
2017-05-25T04:16:10.084Z,13.60
2017-05-25T04:18:38.419Z,13.60
2017-05-25T04:21:06.676Z,13.50
2017-05-25T04:23:34.920Z,13.50
2017-05-25T04:26:03.192Z,13.50
2017-05-25T04:28:31.437Z,13.60
2017-05-25T04:30:59.699Z,13.70
2017-05-25T04:33:27.950Z,13.70
2017-05-25T04:35:56.209Z,13.80
2017-05-25T04:38:24.484Z,13.80
2017-05-25T04:40:52.732Z,13.80
2017-05-25T04:43:21.005Z,13.80
2017-05-25T04:45:49.258Z,13.90
2017-05-25T04:48:17.515Z,13.90
2017-05-25T04:50:45.821Z,13.80
2017-05-25T04:53:14.089Z,13.90
2017-05-25T04:55:42.337Z,14.00
2017-05-25T04:58:10.660Z,14.00
2017-05-25T05:00:38.931Z,14.00
2017-05-25T05:03:07.249Z,14.20
2017-05-25T05:05:35.521Z,14.10
2017-05-25T05:08:03.797Z,14.30
2017-05-25T05:10:32.073Z,14.20
2017-05-25T05:13:00.332Z,14.20
2017-05-25T05:15:28.596Z,14.20
2017-05-25T05:17:56.848Z,14.20
2017-05-25T05:20:25.125Z,14.30
2017-05-25T05:22:53.393Z,14.50
2017-05-25T05:25:21.651Z,14.70
2017-05-25T05:27:49.921Z,14.90
2017-05-25T05:30:18.160Z,15.10
2017-05-25T05:32:46.425Z,15.20
2017-05-25T05:35:14.692Z,15.40
2017-05-25T05:37:42.960Z,15.60
2017-05-25T05:40:11.209Z,15.80
2017-05-25T05:42:39.477Z,16.10
2017-05-25T05:45:08.205Z,16.20
2017-05-25T05:47:36.452Z,16.40
2017-05-25T05:50:04.729Z,16.50
2017-05-25T05:52:32.985Z,16.70
2017-05-25T05:55:01.240Z,16.90
2017-05-25T05:57:29.504Z,17.00
2017-05-25T05:59:57.769Z,17.10
2017-05-25T06:02:26.064Z,17.20
2017-05-25T06:04:54.324Z,17.40
2017-05-25T06:07:22.603Z,17.50
2017-05-25T06:09:50.868Z,17.70
2017-05-25T06:12:19.124Z,17.90
2017-05-25T06:14:47.392Z,18.20
2017-05-25T06:17:15.664Z,18.70
2017-05-25T06:19:43.911Z,19.00
2017-05-25T06:22:12.176Z,19.20
2017-05-25T06:24:40.425Z,19.10
2017-05-25T06:27:08.696Z,18.70
2017-05-25T06:29:36.936Z,18.50
2017-05-25T06:32:05.217Z,18.60
2017-05-25T06:34:33.464Z,19.10
2017-05-25T06:37:01.712Z,19.20
2017-05-25T06:39:29.984Z,19.40
2017-05-25T06:41:58.233Z,19.50
2017-05-25T06:44:26.501Z,19.20
2017-05-25T06:46:54.752Z,19.10
2017-05-25T06:49:23.024Z,19.10
2017-05-25T06:51:51.269Z,19.70
2017-05-25T06:54:19.536Z,20.70
2017-05-25T06:56:47.776Z,20.70
2017-05-25T06:59:16.029Z,21.50
2017-05-25T07:01:44.297Z,21.60
2017-05-25T07:04:12.544Z,21.80
2017-05-25T07:06:40.820Z,22.00
2017-05-25T07:09:09.065Z,21.50
2017-05-25T07:11:37.328Z,22.00
2017-05-25T07:14:05.576Z,22.40
2017-05-25T07:16:33.837Z,21.40
2017-05-25T07:19:02.129Z,20.90
2017-05-25T07:21:30.377Z,20.70
2017-05-25T07:23:58.658Z,20.80
2017-05-25T07:26:26.900Z,21.40
2017-05-25T07:28:55.158Z,21.70
2017-05-25T07:31:24.268Z,22.20
2017-05-25T07:33:52.523Z,22.60
2017-05-25T07:36:20.797Z,22.80
2017-05-25T07:38:49.042Z,22.80
2017-05-25T07:41:17.284Z,22.70
2017-05-25T07:43:45.552Z,23.20
2017-05-25T07:46:13.789Z,24.80
2017-05-25T07:48:42.062Z,25.30
2017-05-25T07:51:10.307Z,24.40
2017-05-25T07:53:38.568Z,23.80
2017-05-25T07:56:06.804Z,23.70
2017-05-25T07:58:35.071Z,24.40
2017-05-25T08:01:03.313Z,26.10
2017-05-25T08:03:31.553Z,27.40
2017-05-25T08:05:59.812Z,27.80
2017-05-25T08:08:28.053Z,26.90
2017-05-25T08:10:56.304Z,25.60
2017-05-25T08:13:24.565Z,24.70
2017-05-25T08:15:52.816Z,24.40
2017-05-25T08:18:21.079Z,24.00
2017-05-25T08:20:49.339Z,25.60
2017-05-25T08:23:17.573Z,26.80
2017-05-25T08:25:45.839Z,27.80
2017-05-25T08:28:14.175Z,29.30
2017-05-25T08:30:42.428Z,29.80
2017-05-25T08:33:10.670Z,29.90
2017-05-25T08:35:38.922Z,30.70
2017-05-25T08:38:07.164Z,31.10
2017-05-25T08:40:35.400Z,31.50
2017-05-25T08:43:03.673Z,31.50
2017-05-25T08:45:31.920Z,30.70
2017-05-25T08:48:00.184Z,29.00
2017-05-25T08:50:28.425Z,28.40
2017-05-25T08:52:55.928Z,28.40
2017-05-25T08:55:24.172Z,26.20
2017-05-25T08:57:52.426Z,25.70
2017-05-25T09:00:20.709Z,24.60
2017-05-25T09:02:48.946Z,24.40
2017-05-25T09:05:17.212Z,23.90
2017-05-25T09:07:45.456Z,23.80
2017-05-25T09:10:13.705Z,23.40
2017-05-25T09:12:41.970Z,23.20
2017-05-25T09:15:10.205Z,23.30
2017-05-25T09:17:38.489Z,23.60
2017-05-25T09:20:06.729Z,25.50
2017-05-25T09:22:34.996Z,25.00
2017-05-25T09:25:03.232Z,24.70
2017-05-25T09:27:31.485Z,24.60
2017-05-25T09:29:59.750Z,24.40
2017-05-25T09:32:27.989Z,24.00
2017-05-25T09:34:56.235Z,23.70
2017-05-25T09:37:24.497Z,23.10
2017-05-25T09:39:52.757Z,22.50
2017-05-25T09:42:21.009Z,22.10
2017-05-25T09:44:49.313Z,21.80
2017-05-25T09:47:17.576Z,22.20
2017-05-25T09:49:45.828Z,24.80
2017-05-25T09:52:14.082Z,28.30
2017-05-25T09:54:42.345Z,31.10
2017-05-25T09:57:10.630Z,30.50
2017-05-25T09:59:38.868Z,30.30
2017-05-25T10:02:07.120Z,32.50
2017-05-25T10:04:35.389Z,34.10
2017-05-25T10:07:03.628Z,34.80
2017-05-25T10:09:31.893Z,35.90
2017-05-25T10:12:00.129Z,35.70
2017-05-25T10:14:28.390Z,35.60
2017-05-25T10:16:56.616Z,36.20
2017-05-25T10:19:24.872Z,35.20
2017-05-25T10:21:53.117Z,35.80
2017-05-25T10:24:21.354Z,36.90
2017-05-25T10:26:49.616Z,35.70
2017-05-25T10:29:17.849Z,33.40
2017-05-25T10:31:46.120Z,32.40
2017-05-25T10:34:14.387Z,30.60
2017-05-25T10:36:42.633Z,29.30
2017-05-25T10:39:10.897Z,27.60
2017-05-25T10:41:39.137Z,27.00
2017-05-25T10:44:07.372Z,28.60
2017-05-25T10:46:35.635Z,30.70
2017-05-25T10:49:03.881Z,32.20
2017-05-25T10:51:32.146Z,32.50
2017-05-25T10:54:00.372Z,33.50
2017-05-25T10:56:28.634Z,32.20
2017-05-25T10:58:56.900Z,30.00
2017-05-25T11:01:25.164Z,28.40
2017-05-25T11:03:53.420Z,28.20
2017-05-25T11:06:21.652Z,28.80
2017-05-25T11:08:49.904Z,29.10
2017-05-25T11:11:18.172Z,28.60
2017-05-25T11:13:46.434Z,28.70
2017-05-25T11:16:14.668Z,29.20
2017-05-25T11:18:42.912Z,29.50
2017-05-25T11:21:11.184Z,29.70
2017-05-25T11:23:39.528Z,28.90
2017-05-25T11:26:07.768Z,29.30
2017-05-25T11:28:36.023Z,29.80
2017-05-25T11:31:04.413Z,29.80
2017-05-25T11:33:32.741Z,29.00
2017-05-25T11:36:00.980Z,27.90
2017-05-25T11:38:29.245Z,26.90
2017-05-25T11:40:57.488Z,26.70
2017-05-25T11:43:25.741Z,26.70
2017-05-25T11:45:54.002Z,26.90
2017-05-25T11:48:23.268Z,27.30
2017-05-25T11:50:51.525Z,27.40
2017-05-25T11:53:19.781Z,27.00
2017-05-25T11:55:48.025Z,26.20
2017-05-25T11:58:16.288Z,25.50
2017-05-25T12:00:44.534Z,25.10
2017-05-25T12:03:12.798Z,24.70
2017-05-25T12:05:41.056Z,25.00
2017-05-25T12:08:09.302Z,24.90
2017-05-25T12:10:37.560Z,24.50
2017-05-25T12:13:05.806Z,24.60
2017-05-25T12:15:34.048Z,24.90
2017-05-25T12:18:02.308Z,25.20
2017-05-25T12:20:30.553Z,25.20
2017-05-25T12:22:58.793Z,25.60
2017-05-25T12:25:27.051Z,26.00
2017-05-25T12:27:55.308Z,26.30
2017-05-25T12:30:23.565Z,26.40
2017-05-25T12:32:51.826Z,26.50
2017-05-25T12:35:20.091Z,26.90
2017-05-25T12:37:48.346Z,26.80
2017-05-25T12:40:16.605Z,26.70
2017-05-25T12:42:44.853Z,26.60
2017-05-25T12:45:13.112Z,26.40
2017-05-25T12:47:41.344Z,26.80
2017-05-25T12:50:09.609Z,26.40
2017-05-25T12:52:37.847Z,25.90
2017-05-25T12:55:06.107Z,25.50
2017-05-25T12:57:34.366Z,25.40
2017-05-25T13:00:02.600Z,25.70
2017-05-25T13:02:30.890Z,26.00
2017-05-25T13:04:59.138Z,25.90
2017-05-25T13:07:27.377Z,25.90
2017-05-25T13:09:55.632Z,26.30
2017-05-25T13:12:23.878Z,26.70
2017-05-25T13:14:52.136Z,26.20
2017-05-25T13:17:20.388Z,26.30
2017-05-25T13:19:48.664Z,26.30
2017-05-25T13:22:16.905Z,26.30
2017-05-25T13:24:45.146Z,26.30
2017-05-25T13:27:13.408Z,26.50
2017-05-25T13:29:41.660Z,26.30
2017-05-25T13:32:09.933Z,26.30
2017-05-25T13:34:38.176Z,26.20
2017-05-25T13:37:06.425Z,26.00
2017-05-25T13:39:34.681Z,25.60
2017-05-25T13:42:02.934Z,25.80
2017-05-25T13:44:31.176Z,25.90
2017-05-25T13:46:59.526Z,26.00
2017-05-25T13:49:27.760Z,25.90
2017-05-25T13:51:55.995Z,25.80
2017-05-25T13:54:24.250Z,26.00
2017-05-25T13:56:52.492Z,26.00
2017-05-25T13:59:20.752Z,26.00
2017-05-25T14:01:48.993Z,26.00
2017-05-25T14:04:17.257Z,25.90
2017-05-25T14:06:45.493Z,25.80
2017-05-25T14:09:13.736Z,25.50
2017-05-25T14:11:41.992Z,25.80
2017-05-25T14:14:10.256Z,25.80
2017-05-25T14:16:38.517Z,25.50
2017-05-25T14:19:06.755Z,25.50
2017-05-25T14:21:35.020Z,25.40
2017-05-25T14:24:03.260Z,25.50
2017-05-25T14:26:31.505Z,24.80
2017-05-25T14:28:59.760Z,25.20
2017-05-25T14:31:28.024Z,25.20
2017-05-25T14:33:56.300Z,25.30
2017-05-25T14:36:24.542Z,25.50
2017-05-25T14:38:52.800Z,24.90
2017-05-25T14:41:21.044Z,25.10
2017-05-25T14:43:49.308Z,25.30
2017-05-25T14:46:17.565Z,25.30
2017-05-25T14:48:45.817Z,24.60
2017-05-25T14:51:14.093Z,24.40
2017-05-25T14:53:42.337Z,24.60
2017-05-25T14:56:10.573Z,24.60
2017-05-25T14:58:38.840Z,24.10
2017-05-25T15:01:07.104Z,24.00
2017-05-25T15:03:35.377Z,23.80
2017-05-25T15:06:03.612Z,23.80
2017-05-25T15:08:31.893Z,23.90
2017-05-25T15:11:00.152Z,24.00
2017-05-25T15:13:28.400Z,24.00
2017-05-25T15:15:56.664Z,23.80
2017-05-25T15:18:24.909Z,23.60
2017-05-25T15:20:53.182Z,23.40
2017-05-25T15:23:21.430Z,23.50
2017-05-25T15:25:49.700Z,23.40
2017-05-25T15:28:17.948Z,23.30
2017-05-25T15:30:46.200Z,22.90
2017-05-25T15:33:14.469Z,23.00
2017-05-25T15:35:42.729Z,23.10
2017-05-25T15:38:10.989Z,23.10
2017-05-25T15:40:39.257Z,23.20
2017-05-25T15:43:07.501Z,23.10
2017-05-25T15:45:35.744Z,23.20
2017-05-25T15:48:04.005Z,23.50
2017-05-25T15:50:32.268Z,23.80
2017-05-25T15:53:00.518Z,24.00
2017-05-25T15:55:28.756Z,24.00
2017-05-25T15:57:57.008Z,23.90
2017-05-25T16:00:25.252Z,23.80
2017-05-25T16:02:53.524Z,24.00
2017-05-25T16:05:21.768Z,24.10
2017-05-25T16:07:50.028Z,24.10
2017-05-25T16:10:18.280Z,23.90
2017-05-25T16:12:46.528Z,23.70
2017-05-25T16:15:14.852Z,23.50
2017-05-25T16:17:43.084Z,23.40
2017-05-25T16:20:11.344Z,23.40
2017-05-25T16:22:39.593Z,23.40
2017-05-25T16:25:07.841Z,23.30
2017-05-25T16:27:36.110Z,23.40
2017-05-25T16:30:04.360Z,23.50
2017-05-25T16:32:32.627Z,23.60
2017-05-25T16:35:00.864Z,23.50
2017-05-25T16:37:29.126Z,23.40
2017-05-25T16:39:57.365Z,23.30
2017-05-25T16:42:25.621Z,23.20
2017-05-25T16:44:53.886Z,22.90
2017-05-25T16:47:22.133Z,23.00
2017-05-25T16:49:50.392Z,23.00
2017-05-25T16:52:18.633Z,22.80
2017-05-25T16:54:46.884Z,22.60
2017-05-25T16:57:15.144Z,22.50
2017-05-25T16:59:43.392Z,22.30
2017-05-25T17:02:11.657Z,22.20
2017-05-25T17:04:39.906Z,21.80
2017-05-25T17:07:08.157Z,21.90
2017-05-25T17:09:36.417Z,21.80
2017-05-25T17:12:04.660Z,21.80
2017-05-25T17:14:32.939Z,21.80
2017-05-25T17:17:01.192Z,21.80
2017-05-25T17:19:29.559Z,21.70
2017-05-25T17:21:57.823Z,21.70
2017-05-25T17:24:26.066Z,21.50
2017-05-25T17:26:54.337Z,21.50
2017-05-25T17:29:22.621Z,21.60
2017-05-25T17:31:50.952Z,21.60
2017-05-25T17:34:19.194Z,21.60
2017-05-25T17:36:47.440Z,21.60
2017-05-25T17:39:15.686Z,21.50
2017-05-25T17:41:43.949Z,21.60
2017-05-25T17:44:12.217Z,21.60
2017-05-25T17:46:40.470Z,21.70
2017-05-25T17:49:08.725Z,21.70
2017-05-25T17:51:36.999Z,21.60
2017-05-25T17:54:05.237Z,21.50
2017-05-25T17:56:33.489Z,21.50
2017-05-25T17:59:01.749Z,21.40
2017-05-25T18:01:30.032Z,21.50
2017-05-25T18:03:58.293Z,21.30
2017-05-25T18:06:26.536Z,21.20
2017-05-25T18:08:54.811Z,21.00
2017-05-25T18:11:23.781Z,21.00
2017-05-25T18:13:52.029Z,20.90
2017-05-25T18:16:20.297Z,20.70
2017-05-25T18:18:48.531Z,20.50
2017-05-25T18:21:16.808Z,20.40
2017-05-25T18:23:45.054Z,20.40
2017-05-25T18:26:13.365Z,20.30
2017-05-25T18:28:41.617Z,20.10
2017-05-25T18:31:09.889Z,19.90
2017-05-25T18:33:38.138Z,19.80
2017-05-25T18:36:06.416Z,19.70
2017-05-25T18:38:34.668Z,19.60
2017-05-25T18:41:02.931Z,19.50
2017-05-25T18:43:31.195Z,19.40
2017-05-25T18:45:59.453Z,19.30
2017-05-25T18:48:27.726Z,19.20
2017-05-25T18:50:55.975Z,19.10
2017-05-25T18:53:24.256Z,19.00
2017-05-25T18:55:52.511Z,18.90
2017-05-25T18:58:20.774Z,18.80
2017-05-25T19:00:49.018Z,18.70
2017-05-25T19:03:17.287Z,18.60
2017-05-25T19:05:45.524Z,18.50
2017-05-25T19:08:13.771Z,18.40
2017-05-25T19:10:42.035Z,18.30
2017-05-25T19:13:10.274Z,18.20
2017-05-25T19:15:38.536Z,18.10
2017-05-25T19:18:06.780Z,18.00
2017-05-25T19:20:35.061Z,17.90
2017-05-25T19:23:03.322Z,17.80
2017-05-25T19:25:31.568Z,17.70
2017-05-25T19:27:59.834Z,17.70
2017-05-25T19:30:28.091Z,17.60
2017-05-25T19:32:56.349Z,17.40
2017-05-25T19:35:24.600Z,17.30
2017-05-25T19:37:52.869Z,17.30
2017-05-25T19:40:21.117Z,17.20
2017-05-25T19:42:49.377Z,17.10
2017-05-25T19:45:17.625Z,17.00
2017-05-25T19:47:45.895Z,16.90
2017-05-25T19:50:14.150Z,16.90
2017-05-25T19:52:42.417Z,16.90
2017-05-25T19:55:10.665Z,16.80
2017-05-25T19:57:38.914Z,16.70
2017-05-25T20:00:07.204Z,16.70
2017-05-25T20:02:35.445Z,16.60
2017-05-25T20:05:03.724Z,16.60
2017-05-25T20:07:31.978Z,16.50
2017-05-25T20:10:00.259Z,16.60
2017-05-25T20:12:28.515Z,16.50
2017-05-25T20:14:56.770Z,16.50
2017-05-25T20:17:25.040Z,16.50
2017-05-25T20:19:53.305Z,16.40
2017-05-25T20:22:21.572Z,16.40
2017-05-25T20:24:49.846Z,16.40
2017-05-25T20:27:18.100Z,16.30
2017-05-25T20:29:46.354Z,16.30
2017-05-25T20:32:14.627Z,16.30
2017-05-25T20:34:42.892Z,16.30
2017-05-25T20:37:11.170Z,16.30
2017-05-25T20:39:39.431Z,16.20
2017-05-25T20:42:07.697Z,16.20
2017-05-25T20:44:35.956Z,16.30
2017-05-25T20:47:04.208Z,16.30
2017-05-25T20:49:32.480Z,16.30
2017-05-25T20:52:00.730Z,16.30
2017-05-25T20:54:28.996Z,16.30
2017-05-25T20:56:57.250Z,16.20
2017-05-25T20:59:25.516Z,16.20
2017-05-25T21:01:53.764Z,16.20
2017-05-25T21:04:22.041Z,16.20
2017-05-25T21:06:50.296Z,16.30
2017-05-25T21:09:18.585Z,16.30
2017-05-25T21:11:46.825Z,16.30
2017-05-25T21:14:15.097Z,16.30
2017-05-25T21:16:43.376Z,16.20
2017-05-25T21:19:11.646Z,16.20
2017-05-25T21:21:39.912Z,16.20
2017-05-25T21:24:08.156Z,16.10
2017-05-25T21:26:36.429Z,16.10
2017-05-25T21:29:04.678Z,16.10
2017-05-25T21:31:32.950Z,16.10
2017-05-25T21:34:01.201Z,16.00
2017-05-25T21:36:29.483Z,16.00
2017-05-25T21:38:57.729Z,16.00
2017-05-25T21:41:25.996Z,16.10
2017-05-25T21:43:54.248Z,16.10
2017-05-25T21:46:22.565Z,16.10
2017-05-25T21:48:50.806Z,16.20
2017-05-25T21:51:19.066Z,16.10
2017-05-25T21:53:47.329Z,16.10
2017-05-25T21:56:15.574Z,16.10
2017-05-25T21:58:43.837Z,16.00
2017-05-25T22:01:12.089Z,15.90
2017-05-25T22:03:40.357Z,15.80
2017-05-25T22:06:08.599Z,15.70
2017-05-25T22:08:36.866Z,15.70
2017-05-25T22:11:05.117Z,15.60
2017-05-25T22:13:33.372Z,15.50
2017-05-25T22:16:01.617Z,15.30
2017-05-25T22:18:29.880Z,15.00
2017-05-25T22:20:58.149Z,14.90
2017-05-25T22:23:26.397Z,14.90
2017-05-25T22:25:54.671Z,14.80
2017-05-25T22:28:22.941Z,14.60
2017-05-25T22:30:51.184Z,14.50
2017-05-25T22:33:19.456Z,14.40
2017-05-25T22:35:47.724Z,14.30
2017-05-25T22:38:15.956Z,14.30
2017-05-25T22:40:44.218Z,14.20
2017-05-25T22:43:12.468Z,14.10
2017-05-25T22:45:40.703Z,14.10
2017-05-25T22:48:08.968Z,14.10
2017-05-25T22:50:37.221Z,14.10
2017-05-25T22:53:05.486Z,14.00
2017-05-25T22:55:33.726Z,13.90
2017-05-25T22:58:01.991Z,13.90
2017-05-25T23:00:30.242Z,13.90
2017-05-25T23:02:58.501Z,13.70
2017-05-25T23:05:26.758Z,13.70
2017-05-25T23:07:55.010Z,13.60
2017-05-25T23:10:23.253Z,13.60
2017-05-25T23:12:51.520Z,13.50
2017-05-25T23:15:19.760Z,13.60
2017-05-25T23:17:48.013Z,13.40
2017-05-25T23:20:16.249Z,13.40
2017-05-25T23:22:45.365Z,13.40
2017-05-25T23:25:13.604Z,13.40
2017-05-25T23:27:41.841Z,13.30
2017-05-25T23:30:10.108Z,13.30
2017-05-25T23:32:38.381Z,13.20
2017-05-25T23:35:06.612Z,13.30
2017-05-25T23:37:34.870Z,13.30
2017-05-25T23:40:03.125Z,13.20
2017-05-25T23:42:31.388Z,13.10
2017-05-25T23:44:59.645Z,13.00
2017-05-25T23:47:27.916Z,13.00
2017-05-25T23:49:56.171Z,12.90
2017-05-25T23:52:24.437Z,12.90
2017-05-25T23:54:52.688Z,12.90
2017-05-25T23:57:20.932Z,13.00
2017-05-25T23:59:49.239Z,13.00
